sensor_id;sensor_type;location;lat;lon;timestamp;pressure;altitude;pressure_sealevel;temperature;humidity
73103;BME280;61294;65.988;29.172;2022-08-25T00:00:20;99389.63;;;7.47;85.14
73103;BME280;61294;65.988;29.172;2022-08-25T00:02:46;99392.22;;;7.45;84.90
73103;BME280;61294;65.988;29.172;2022-08-25T00:05:12;99385.97;;;7.37;84.56
73103;BME280;61294;65.988;29.172;2022-08-25T00:07:38;99364.53;;;7.14;85.24
73103;BME280;61294;65.988;29.172;2022-08-25T00:10:05;99397.09;;;7.26;85.19
73103;BME280;61294;65.988;29.172;2022-08-25T00:12:31;99388.31;;;7.23;85.61
73103;BME280;61294;65.988;29.172;2022-08-25T00:14:57;99382.03;;;7.16;85.16
73103;BME280;61294;65.988;29.172;2022-08-25T00:17:23;99389.03;;;7.16;85.24
73103;BME280;61294;65.988;29.172;2022-08-25T00:19:49;99358.94;;;6.97;85.34
73103;BME280;61294;65.988;29.172;2022-08-25T00:22:14;99382.84;;;7.14;85.33
73103;BME280;61294;65.988;29.172;2022-08-25T00:24:40;99388.84;;;7.08;85.61
73103;BME280;61294;65.988;29.172;2022-08-25T00:27:06;99357.97;;;6.91;84.91
73103;BME280;61294;65.988;29.172;2022-08-25T00:29:32;99357.91;;;6.88;85.62
73103;BME280;61294;65.988;29.172;2022-08-25T00:31:59;99357.94;;;6.90;85.35
73103;BME280;61294;65.988;29.172;2022-08-25T00:34:29;99382.63;;;7.01;85.11
73103;BME280;61294;65.988;29.172;2022-08-25T00:36:56;99372.94;;;6.97;85.45
73103;BME280;61294;65.988;29.172;2022-08-25T00:39:23;99384.00;;;6.85;85.23
73103;BME280;61294;65.988;29.172;2022-08-25T00:41:51;99343.34;;;6.62;86.29
73103;BME280;61294;65.988;29.172;2022-08-25T00:44:17;99392.56;;;6.78;86.07
73103;BME280;61294;65.988;29.172;2022-08-25T00:46:47;99390.72;;;6.74;86.62
73103;BME280;61294;65.988;29.172;2022-08-25T00:49:19;99392.66;;;6.81;86.73
73103;BME280;61294;65.988;29.172;2022-08-25T00:51:55;99378.69;;;6.82;86.17
73103;BME280;61294;65.988;29.172;2022-08-25T00:54:27;99364.75;;;6.44;85.47
73103;BME280;61294;65.988;29.172;2022-08-25T00:56:54;99397.38;;;6.21;85.36
73103;BME280;61294;65.988;29.172;2022-08-25T00:59:22;99397.78;;;6.38;86.32
73103;BME280;61294;65.988;29.172;2022-08-25T01:01:51;99377.66;;;6.36;86.18
73103;BME280;61294;65.988;29.172;2022-08-25T01:04:18;99396.91;;;6.39;85.85
73103;BME280;61294;65.988;29.172;2022-08-25T01:06:46;99394.91;;;6.28;85.76
73103;BME280;61294;65.988;29.172;2022-08-25T01:09:13;99390.69;;;6.33;86.11
73103;BME280;61294;65.988;29.172;2022-08-25T01:11:41;99395.38;;;6.48;86.21
73103;BME280;61294;65.988;29.172;2022-08-25T01:14:08;99370.28;;;6.19;85.96
73103;BME280;61294;65.988;29.172;2022-08-25T01:16:38;99396.03;;;6.39;86.20
73103;BME280;61294;65.988;29.172;2022-08-25T01:19:06;99401.38;;;6.44;86.03
73103;BME280;61294;65.988;29.172;2022-08-25T01:21:41;99411.91;;;6.47;85.78
73103;BME280;61294;65.988;29.172;2022-08-25T01:24:09;99408.28;;;6.40;85.73
73103;BME280;61294;65.988;29.172;2022-08-25T01:26:35;99414.34;;;6.37;85.77
73103;BME280;61294;65.988;29.172;2022-08-25T01:29:05;99382.47;;;6.19;86.59
73103;BME280;61294;65.988;29.172;2022-08-25T01:31:55;99411.66;;;6.34;86.17
73103;BME280;61294;65.988;29.172;2022-08-25T01:34:24;99411.53;;;6.31;86.15
73103;BME280;61294;65.988;29.172;2022-08-25T01:36:50;99403.66;;;6.30;86.29
73103;BME280;61294;65.988;29.172;2022-08-25T01:39:16;99414.22;;;6.33;86.23
73103;BME280;61294;65.988;29.172;2022-08-25T01:44:19;99403.19;;;6.11;86.17
73103;BME280;61294;65.988;29.172;2022-08-25T01:46:44;99382.97;;;6.04;86.64
73103;BME280;61294;65.988;29.172;2022-08-25T01:49:11;99413.44;;;6.02;86.04
73103;BME280;61294;65.988;29.172;2022-08-25T01:51:42;99399.03;;;5.84;85.72
73103;BME280;61294;65.988;29.172;2022-08-25T01:54:08;99393.69;;;5.81;86.35
73103;BME280;61294;65.988;29.172;2022-08-25T01:56:34;99383.41;;;5.87;86.27
73103;BME280;61294;65.988;29.172;2022-08-25T01:59:00;99379.22;;;5.61;86.16
73103;BME280;61294;65.988;29.172;2022-08-25T02:01:26;99408.50;;;5.81;85.90
73103;BME280;61294;65.988;29.172;2022-08-25T02:03:53;99385.50;;;5.67;85.73
73103;BME280;61294;65.988;29.172;2022-08-25T02:06:36;99395.13;;;5.70;85.71
73103;BME280;61294;65.988;29.172;2022-08-25T02:09:11;99385.47;;;5.66;86.16
73103;BME280;61294;65.988;29.172;2022-08-25T02:11:45;99372.47;;;5.69;86.00
73103;BME280;61294;65.988;29.172;2022-08-25T02:14:13;99391.69;;;5.71;86.06
73103;BME280;61294;65.988;29.172;2022-08-25T02:16:46;99389.81;;;5.67;86.05
73103;BME280;61294;65.988;29.172;2022-08-25T02:19:14;99383.94;;;5.76;86.58
73103;BME280;61294;65.988;29.172;2022-08-25T02:21:41;99387.50;;;5.78;85.91
73103;BME280;61294;65.988;29.172;2022-08-25T02:31:05;99384.69;;;6.02;86.12
73103;BME280;61294;65.988;29.172;2022-08-25T02:34:22;99381.38;;;6.09;85.93
73103;BME280;61294;65.988;29.172;2022-08-25T02:37:12;99384.00;;;6.11;86.08
73103;BME280;61294;65.988;29.172;2022-08-25T02:39:45;99376.88;;;6.03;85.86
73103;BME280;61294;65.988;29.172;2022-08-25T02:42:11;99377.69;;;6.02;86.27
73103;BME280;61294;65.988;29.172;2022-08-25T02:44:37;99375.16;;;6.05;85.96
73103;BME280;61294;65.988;29.172;2022-08-25T02:47:03;99352.81;;;5.85;86.16
73103;BME280;61294;65.988;29.172;2022-08-25T02:49:30;99379.41;;;6.00;86.61
73103;BME280;61294;65.988;29.172;2022-08-25T02:52:05;99383.06;;;6.07;86.66
73103;BME280;61294;65.988;29.172;2022-08-25T02:54:31;99380.56;;;6.12;86.78
73103;BME280;61294;65.988;29.172;2022-08-25T02:56:57;99365.88;;;6.18;87.07
73103;BME280;61294;65.988;29.172;2022-08-25T02:59:23;99362.00;;;6.02;86.58
73103;BME280;61294;65.988;29.172;2022-08-25T03:01:49;99369.69;;;5.96;86.38
73103;BME280;61294;65.988;29.172;2022-08-25T03:04:15;99345.84;;;5.85;86.85
73103;BME280;61294;65.988;29.172;2022-08-25T03:06:41;99366.13;;;5.94;86.98
73103;BME280;61294;65.988;29.172;2022-08-25T03:09:08;99378.28;;;5.92;86.76
73103;BME280;61294;65.988;29.172;2022-08-25T03:11:34;99374.03;;;5.96;87.00
73103;BME280;61294;65.988;29.172;2022-08-25T03:14:04;99372.38;;;5.98;87.45
73103;BME280;61294;65.988;29.172;2022-08-25T03:16:30;99366.13;;;5.94;87.10
73103;BME280;61294;65.988;29.172;2022-08-25T03:18:56;99375.84;;;5.98;87.00
73103;BME280;61294;65.988;29.172;2022-08-25T03:21:25;99375.22;;;6.07;87.52
73103;BME280;61294;65.988;29.172;2022-08-25T03:23:51;99346.38;;;6.05;87.52
73103;BME280;61294;65.988;29.172;2022-08-25T03:26:17;99348.72;;;5.95;87.72
73103;BME280;61294;65.988;29.172;2022-08-25T03:29:24;99369.47;;;6.22;88.08
73103;BME280;61294;65.988;29.172;2022-08-25T03:31:50;99371.44;;;6.32;87.93
73103;BME280;61294;65.988;29.172;2022-08-25T03:34:18;99347.78;;;6.26;88.08
73103;BME280;61294;65.988;29.172;2022-08-25T03:36:47;99354.81;;;6.29;88.08
73103;BME280;61294;65.988;29.172;2022-08-25T03:39:13;99359.31;;;6.34;88.02
73103;BME280;61294;65.988;29.172;2022-08-25T03:41:39;99362.91;;;6.39;88.46
73103;BME280;61294;65.988;29.172;2022-08-25T03:44:06;99340.66;;;6.20;88.72
73103;BME280;61294;65.988;29.172;2022-08-25T03:46:37;99371.78;;;6.46;88.88
73103;BME280;61294;65.988;29.172;2022-08-25T03:49:06;99360.09;;;6.30;88.59
73103;BME280;61294;65.988;29.172;2022-08-25T03:51:36;99356.75;;;6.37;89.19
73103;BME280;61294;65.988;29.172;2022-08-25T03:54:03;99352.59;;;6.46;88.97
73103;BME280;61294;65.988;29.172;2022-08-25T03:56:29;99336.56;;;6.32;89.09
73103;BME280;61294;65.988;29.172;2022-08-25T03:58:56;99353.47;;;6.46;89.57
73103;BME280;61294;65.988;29.172;2022-08-25T04:01:22;99357.03;;;6.50;89.40
73103;BME280;61294;65.988;29.172;2022-08-25T04:03:48;99358.75;;;6.49;89.46
73103;BME280;61294;65.988;29.172;2022-08-25T04:06:15;99364.06;;;6.52;89.71
73103;BME280;61294;65.988;29.172;2022-08-25T04:08:42;99349.38;;;6.57;89.83
73103;BME280;61294;65.988;29.172;2022-08-25T04:11:13;99348.56;;;6.60;90.03
73103;BME280;61294;65.988;29.172;2022-08-25T04:13:40;99336.94;;;6.47;89.67
73103;BME280;61294;65.988;29.172;2022-08-25T04:16:15;99337.78;;;6.48;89.56
73103;BME280;61294;65.988;29.172;2022-08-25T04:18:43;99355.41;;;6.55;89.90
73103;BME280;61294;65.988;29.172;2022-08-25T04:21:10;99355.31;;;6.50;90.04
73103;BME280;61294;65.988;29.172;2022-08-25T04:23:38;99348.25;;;6.48;90.72
73103;BME280;61294;65.988;29.172;2022-08-25T04:26:39;99334.31;;;6.47;90.67
73103;BME280;61294;65.988;29.172;2022-08-25T04:29:06;99348.38;;;6.52;90.43
73103;BME280;61294;65.988;29.172;2022-08-25T04:31:34;99342.38;;;6.58;90.47
73103;BME280;61294;65.988;29.172;2022-08-25T04:34:02;99329.47;;;6.66;90.52
73103;BME280;61294;65.988;29.172;2022-08-25T04:36:28;99332.47;;;6.83;90.21
73103;BME280;61294;65.988;29.172;2022-08-25T04:38:54;99367.34;;;6.82;90.49
73103;BME280;61294;65.988;29.172;2022-08-25T04:41:21;99340.09;;;6.73;90.62
73103;BME280;61294;65.988;29.172;2022-08-25T04:43:49;99361.38;;;6.87;90.36
73103;BME280;61294;65.988;29.172;2022-08-25T04:46:22;99366.97;;;7.04;90.73
73103;BME280;61294;65.988;29.172;2022-08-25T04:48:51;99349.31;;;6.96;90.48
73103;BME280;61294;65.988;29.172;2022-08-25T04:51:20;99374.91;;;7.09;90.66
73103;BME280;61294;65.988;29.172;2022-08-25T04:53:48;99378.59;;;7.17;90.93
73103;BME280;61294;65.988;29.172;2022-08-25T04:56:20;99371.78;;;7.27;90.77
73103;BME280;61294;65.988;29.172;2022-08-25T04:58:46;99366.63;;;7.32;90.54
73103;BME280;61294;65.988;29.172;2022-08-25T05:01:18;99373.72;;;7.36;90.63
73103;BME280;61294;65.988;29.172;2022-08-25T05:03:46;99372.00;;;7.38;90.67
73103;BME280;61294;65.988;29.172;2022-08-25T05:06:13;99366.88;;;7.44;91.56
73103;BME280;61294;65.988;29.172;2022-08-25T05:08:40;99381.75;;;7.45;91.55
73103;BME280;61294;65.988;29.172;2022-08-25T05:11:06;99374.75;;;7.44;91.90
73103;BME280;61294;65.988;29.172;2022-08-25T05:13:34;99375.00;;;7.58;92.19
73103;BME280;61294;65.988;29.172;2022-08-25T05:16:01;99365.50;;;7.63;92.25
73103;BME280;61294;65.988;29.172;2022-08-25T05:18:28;99357.53;;;7.57;92.65
73103;BME280;61294;65.988;29.172;2022-08-25T05:20:55;99373.34;;;7.63;92.49
73103;BME280;61294;65.988;29.172;2022-08-25T05:23:23;99376.75;;;7.57;92.45
73103;BME280;61294;65.988;29.172;2022-08-25T05:25:50;99352.00;;;7.43;93.44
73103;BME280;61294;65.988;29.172;2022-08-25T05:28:17;99353.78;;;7.44;93.58
73103;BME280;61294;65.988;29.172;2022-08-25T05:30:43;99368.84;;;7.56;94.01
73103;BME280;61294;65.988;29.172;2022-08-25T05:33:11;99355.69;;;7.53;94.43
73103;BME280;61294;65.988;29.172;2022-08-25T05:35:37;99371.53;;;7.59;94.68
73103;BME280;61294;65.988;29.172;2022-08-25T05:38:04;99351.41;;;7.59;94.47
73103;BME280;61294;65.988;29.172;2022-08-25T05:40:31;99363.72;;;7.62;94.60
73103;BME280;61294;65.988;29.172;2022-08-25T05:42:57;99368.19;;;7.68;94.77
73103;BME280;61294;65.988;29.172;2022-08-25T05:45:23;99363.00;;;7.71;94.95
73103;BME280;61294;65.988;29.172;2022-08-25T05:47:49;99354.22;;;7.69;94.76
73103;BME280;61294;65.988;29.172;2022-08-25T05:50:16;99375.53;;;7.87;94.99
73103;BME280;61294;65.988;29.172;2022-08-25T05:52:42;99357.19;;;7.87;95.10
73103;BME280;61294;65.988;29.172;2022-08-25T05:55:08;99357.28;;;7.93;95.00
73103;BME280;61294;65.988;29.172;2022-08-25T05:57:35;99366.97;;;7.98;94.69
73103;BME280;61294;65.988;29.172;2022-08-25T06:00:01;99364.41;;;8.01;94.65
73103;BME280;61294;65.988;29.172;2022-08-25T06:02:27;99366.25;;;8.08;95.14
73103;BME280;61294;65.988;29.172;2022-08-25T06:05:21;99368.34;;;8.27;94.93
73103;BME280;61294;65.988;29.172;2022-08-25T06:07:50;99379.91;;;8.39;94.54
73103;BME280;61294;65.988;29.172;2022-08-25T06:10:17;99365.97;;;8.43;94.23
73103;BME280;61294;65.988;29.172;2022-08-25T06:12:43;99369.75;;;8.60;93.66
73103;BME280;61294;65.988;29.172;2022-08-25T06:15:12;99379.56;;;8.72;93.49
73103;BME280;61294;65.988;29.172;2022-08-25T06:17:38;99378.72;;;8.76;93.38
73103;BME280;61294;65.988;29.172;2022-08-25T06:20:11;99381.47;;;8.84;93.47
73103;BME280;61294;65.988;29.172;2022-08-25T06:22:37;99368.41;;;8.90;93.09
73103;BME280;61294;65.988;29.172;2022-08-25T06:25:04;99365.81;;;8.92;92.36
73103;BME280;61294;65.988;29.172;2022-08-25T06:27:30;99358.94;;;9.02;92.10
73103;BME280;61294;65.988;29.172;2022-08-25T06:29:56;99367.78;;;9.08;91.80
73103;BME280;61294;65.988;29.172;2022-08-25T06:32:21;99364.47;;;9.23;90.96
73103;BME280;61294;65.988;29.172;2022-08-25T06:34:47;99356.63;;;9.26;90.13
73103;BME280;61294;65.988;29.172;2022-08-25T06:37:13;99348.69;;;9.23;89.83
73103;BME280;61294;65.988;29.172;2022-08-25T06:39:38;99375.16;;;9.39;89.54
73103;BME280;61294;65.988;29.172;2022-08-25T06:42:04;99334.59;;;9.15;89.24
73103;BME280;61294;65.988;29.172;2022-08-25T06:44:30;99360.19;;;9.31;88.76
73103;BME280;61294;65.988;29.172;2022-08-25T06:46:56;99377.00;;;9.46;88.32
73103;BME280;61294;65.988;29.172;2022-08-25T06:49:21;99346.25;;;9.40;87.36
73103;BME280;61294;65.988;29.172;2022-08-25T06:51:47;99382.47;;;9.66;86.56
73103;BME280;61294;65.988;29.172;2022-08-25T06:54:14;99363.00;;;9.48;86.95
73103;BME280;61294;65.988;29.172;2022-08-25T06:56:41;99389.50;;;9.65;85.91
73103;BME280;61294;65.988;29.172;2022-08-25T06:59:08;99388.69;;;9.71;84.50
73103;BME280;61294;65.988;29.172;2022-08-25T07:01:34;99392.25;;;9.78;83.94
73103;BME280;61294;65.988;29.172;2022-08-25T07:04:02;99371.22;;;9.79;83.13
73103;BME280;61294;65.988;29.172;2022-08-25T07:06:30;99358.81;;;9.67;81.91
73103;BME280;61294;65.988;29.172;2022-08-25T07:08:56;99385.31;;;9.86;80.49
73103;BME280;61294;65.988;29.172;2022-08-25T07:11:23;99383.63;;;9.94;80.29
73103;BME280;61294;65.988;29.172;2022-08-25T07:13:49;99389.84;;;9.99;80.35
73103;BME280;61294;65.988;29.172;2022-08-25T07:16:17;99371.41;;;9.98;80.41
73103;BME280;61294;65.988;29.172;2022-08-25T07:18:45;99376.72;;;10.04;80.49
73103;BME280;61294;65.988;29.172;2022-08-25T07:21:12;99384.72;;;10.15;78.80
73103;BME280;61294;65.988;29.172;2022-08-25T07:23:41;99386.41;;;10.10;79.17
73103;BME280;61294;65.988;29.172;2022-08-25T07:26:10;99375.94;;;10.16;79.31
73103;BME280;61294;65.988;29.172;2022-08-25T07:28:36;99359.25;;;10.12;79.10
73103;BME280;61294;65.988;29.172;2022-08-25T07:31:03;99369.81;;;10.17;78.45
73103;BME280;61294;65.988;29.172;2022-08-25T07:33:29;99362.00;;;10.26;77.98
73103;BME280;61294;65.988;29.172;2022-08-25T07:35:54;99366.38;;;10.29;77.38
73103;BME280;61294;65.988;29.172;2022-08-25T07:38:21;99384.13;;;10.47;78.02
73103;BME280;61294;65.988;29.172;2022-08-25T07:40:46;99361.31;;;10.49;78.57
73103;BME280;61294;65.988;29.172;2022-08-25T07:43:20;99367.50;;;10.57;78.61
73103;BME280;61294;65.988;29.172;2022-08-25T07:45:46;99364.00;;;10.58;78.39
73103;BME280;61294;65.988;29.172;2022-08-25T07:48:12;99364.03;;;10.63;76.20
73103;BME280;61294;65.988;29.172;2022-08-25T07:50:41;99353.56;;;10.69;76.90
73103;BME280;61294;65.988;29.172;2022-08-25T07:53:09;99383.66;;;11.16;77.34
73103;BME280;61294;65.988;29.172;2022-08-25T07:55:35;99387.19;;;11.22;75.87
73103;BME280;61294;65.988;29.172;2022-08-25T07:58:03;99354.63;;;11.13;74.77
73103;BME280;61294;65.988;29.172;2022-08-25T08:00:30;99385.47;;;11.26;74.43
73103;BME280;61294;65.988;29.172;2022-08-25T08:02:58;99341.50;;;11.23;72.88
73103;BME280;61294;65.988;29.172;2022-08-25T08:05:26;99370.53;;;11.33;74.05
73103;BME280;61294;65.988;29.172;2022-08-25T08:07:52;99397.03;;;11.56;74.58
73103;BME280;61294;65.988;29.172;2022-08-25T08:10:18;99383.00;;;11.79;73.38
73103;BME280;61294;65.988;29.172;2022-08-25T08:12:45;99380.38;;;11.83;71.40
73103;BME280;61294;65.988;29.172;2022-08-25T08:15:11;99385.66;;;11.92;71.62
73103;BME280;61294;65.988;29.172;2022-08-25T08:17:38;99400.69;;;12.09;72.26
73103;BME280;61294;65.988;29.172;2022-08-25T08:20:04;99389.25;;;12.39;72.83
73103;BME280;61294;65.988;29.172;2022-08-25T08:22:34;99395.41;;;12.45;70.74
73103;BME280;61294;65.988;29.172;2022-08-25T08:25:00;99388.38;;;12.51;68.76
73103;BME280;61294;65.988;29.172;2022-08-25T08:27:26;99393.63;;;12.74;70.39
73103;BME280;61294;65.988;29.172;2022-08-25T08:29:52;99396.22;;;12.94;71.53
73103;BME280;61294;65.988;29.172;2022-08-25T08:32:18;99394.44;;;12.98;68.76
73103;BME280;61294;65.988;29.172;2022-08-25T08:34:45;99367.13;;;12.96;68.96
73103;BME280;61294;65.988;29.172;2022-08-25T08:37:12;99374.16;;;13.03;67.83
73103;BME280;61294;65.988;29.172;2022-08-25T08:39:38;99372.28;;;13.47;70.23
73103;BME280;61294;65.988;29.172;2022-08-25T08:42:37;99388.09;;;13.55;68.00
73103;BME280;61294;65.988;29.172;2022-08-25T08:48:02;99373.69;;;14.02;66.17
73103;BME280;61294;65.988;29.172;2022-08-25T08:53:33;99369.66;;;14.68;68.02
73103;BME280;61294;65.988;29.172;2022-08-25T08:56:08;99363.00;;;15.12;67.23
73103;BME280;61294;65.988;29.172;2022-08-25T08:58:51;99365.25;;;15.43;65.00
73103;BME280;61294;65.988;29.172;2022-08-25T09:01:26;99362.69;;;15.37;63.33
73103;BME280;61294;65.988;29.172;2022-08-25T09:04:08;99355.78;;;15.91;66.09
73103;BME280;61294;65.988;29.172;2022-08-25T09:06:41;99363.31;;;16.70;64.61
73103;BME280;61294;65.988;29.172;2022-08-25T09:09:08;99355.25;;;17.21;63.88
73103;BME280;61294;65.988;29.172;2022-08-25T09:11:56;99336.84;;;17.54;60.82
73103;BME280;61294;65.988;29.172;2022-08-25T09:20:53;99345.50;;;29.97;37.77
73103;BME280;61294;65.988;29.172;2022-08-25T09:28:49;99330.75;;;37.61;23.78
73103;BME280;61294;65.988;29.172;2022-08-25T09:31:22;99320.50;;;35.74;22.80
73103;BME280;61294;65.988;29.172;2022-08-25T09:33:49;99320.16;;;35.22;23.74
73103;BME280;61294;65.988;29.172;2022-08-25T09:36:17;99324.84;;;35.77;19.12
73103;BME280;61294;65.988;29.172;2022-08-25T09:38:44;99333.25;;;38.23;21.57
73103;BME280;61294;65.988;29.172;2022-08-25T09:41:10;99290.25;;;39.61;19.14
73103;BME280;61294;65.988;29.172;2022-08-25T09:43:42;99318.66;;;40.09;18.91
73103;BME280;61294;65.988;29.172;2022-08-25T09:46:26;99297.78;;;39.11;17.89
73103;BME280;61294;65.988;29.172;2022-08-25T09:48:57;99318.34;;;37.48;18.54
73103;BME280;61294;65.988;29.172;2022-08-25T09:51:35;99314.41;;;38.70;18.58
73103;BME280;61294;65.988;29.172;2022-08-25T09:56:57;99307.88;;;37.95;18.27
73103;BME280;61294;65.988;29.172;2022-08-25T09:59:33;99301.91;;;41.03;17.21
73103;BME280;61294;65.988;29.172;2022-08-25T10:02:20;99294.69;;;39.78;16.32
73103;BME280;61294;65.988;29.172;2022-08-25T10:04:48;99308.19;;;40.89;16.38
73103;BME280;61294;65.988;29.172;2022-08-25T10:07:25;99296.22;;;39.81;16.58
73103;BME280;61294;65.988;29.172;2022-08-25T10:10:00;99305.06;;;41.45;15.35
73103;BME280;61294;65.988;29.172;2022-08-25T10:12:34;99296.66;;;40.24;14.05
73103;BME280;61294;65.988;29.172;2022-08-25T10:15:33;99294.41;;;38.67;16.91
73103;BME280;61294;65.988;29.172;2022-08-25T10:21:01;99287.34;;;40.25;14.21
73103;BME280;61294;65.988;29.172;2022-08-25T10:23:28;99301.16;;;42.21;14.47
73103;BME280;61294;65.988;29.172;2022-08-25T10:25:54;99293.41;;;40.20;15.81
73103;BME280;61294;65.988;29.172;2022-08-25T10:28:55;99292.69;;;42.07;13.18
73103;BME280;61294;65.988;29.172;2022-08-25T10:31:35;99285.78;;;40.69;12.91
73103;BME280;61294;65.988;29.172;2022-08-25T10:37:05;99282.78;;;39.78;13.84
73103;BME280;61294;65.988;29.172;2022-08-25T10:39:43;99294.09;;;43.12;13.82
73103;BME280;61294;65.988;29.172;2022-08-25T10:42:29;99286.97;;;40.28;13.80
73103;BME280;61294;65.988;29.172;2022-08-25T10:56:41;99275.94;;;42.59;13.90
73103;BME280;61294;65.988;29.172;2022-08-25T11:07:43;99284.13;;;42.46;12.96
73103;BME280;61294;65.988;29.172;2022-08-25T11:10:41;99285.31;;;41.33;13.58
73103;BME280;61294;65.988;29.172;2022-08-25T11:13:18;99282.78;;;41.98;13.45
73103;BME280;61294;65.988;29.172;2022-08-25T11:15:52;99276.72;;;44.41;12.88
73103;BME280;61294;65.988;29.172;2022-08-25T11:18:19;99278.34;;;43.54;13.06
73103;BME280;61294;65.988;29.172;2022-08-25T11:21:09;99275.19;;;42.07;13.63
73103;BME280;61294;65.988;29.172;2022-08-25T11:23:53;99274.53;;;40.94;15.02
73103;BME280;61294;65.988;29.172;2022-08-25T11:26:33;99275.38;;;43.55;13.71
73103;BME280;61294;65.988;29.172;2022-08-25T11:29:15;99271.09;;;43.18;12.10
73103;BME280;61294;65.988;29.172;2022-08-25T11:31:45;99276.00;;;42.87;13.00
73103;BME280;61294;65.988;29.172;2022-08-25T11:34:12;99266.75;;;43.43;13.61
73103;BME280;61294;65.988;29.172;2022-08-25T11:36:42;99269.44;;;42.67;13.28
73103;BME280;61294;65.988;29.172;2022-08-25T11:39:20;99271.50;;;42.86;13.56
73103;BME280;61294;65.988;29.172;2022-08-25T11:42:11;99272.34;;;43.15;13.70
73103;BME280;61294;65.988;29.172;2022-08-25T11:44:47;99264.97;;;41.86;13.60
73103;BME280;61294;65.988;29.172;2022-08-25T11:47:45;99265.72;;;43.93;13.19
73103;BME280;61294;65.988;29.172;2022-08-25T11:50:36;99275.75;;;43.45;10.96
73103;BME280;61294;65.988;29.172;2022-08-25T11:53:31;99270.47;;;43.57;12.67
73103;BME280;61294;65.988;29.172;2022-08-25T11:56:01;99261.31;;;43.22;11.09
73103;BME280;61294;65.988;29.172;2022-08-25T12:01:58;99265.47;;;43.88;13.04
73103;BME280;61294;65.988;29.172;2022-08-25T12:04:33;99263.63;;;43.53;12.10
73103;BME280;61294;65.988;29.172;2022-08-25T12:12:54;99265.78;;;43.58;13.18
73103;BME280;61294;65.988;29.172;2022-08-25T12:15:25;99258.16;;;43.73;12.86
73103;BME280;61294;65.988;29.172;2022-08-25T12:18:11;99269.81;;;44.24;13.23
73103;BME280;61294;65.988;29.172;2022-08-25T12:23:35;99254.19;;;43.89;12.62
73103;BME280;61294;65.988;29.172;2022-08-25T12:28:39;99258.69;;;45.44;12.46
73103;BME280;61294;65.988;29.172;2022-08-25T12:36:58;99258.47;;;42.58;13.47
73103;BME280;61294;65.988;29.172;2022-08-25T12:39:34;99261.78;;;42.69;13.45
73103;BME280;61294;65.988;29.172;2022-08-25T12:42:04;99252.22;;;42.06;12.94
73103;BME280;61294;65.988;29.172;2022-08-25T12:44:39;99244.00;;;42.35;12.55
73103;BME280;61294;65.988;29.172;2022-08-25T12:47:13;99248.19;;;43.37;12.81
73103;BME280;61294;65.988;29.172;2022-08-25T12:49:50;99232.44;;;42.53;12.54
73103;BME280;61294;65.988;29.172;2022-08-25T12:52:18;99250.72;;;41.22;13.33
73103;BME280;61294;65.988;29.172;2022-08-25T12:54:51;99247.69;;;41.02;13.63
73103;BME280;61294;65.988;29.172;2022-08-25T12:57:26;99248.31;;;41.64;14.39
73103;BME280;61294;65.988;29.172;2022-08-25T12:59:56;99225.75;;;43.32;12.93
73103;BME280;61294;65.988;29.172;2022-08-25T13:02:45;99240.06;;;43.36;13.29
73103;BME280;61294;65.988;29.172;2022-08-25T13:08:07;99240.03;;;42.01;14.16
73103;BME280;61294;65.988;29.172;2022-08-25T13:10:47;99242.97;;;41.63;12.31
73103;BME280;61294;65.988;29.172;2022-08-25T13:16:30;99246.81;;;41.02;13.62
73103;BME280;61294;65.988;29.172;2022-08-25T13:18:58;99237.00;;;41.14;13.98
73103;BME280;61294;65.988;29.172;2022-08-25T13:21:40;99247.38;;;41.57;14.33
73103;BME280;61294;65.988;29.172;2022-08-25T13:24:29;99236.47;;;42.07;14.27
73103;BME280;61294;65.988;29.172;2022-08-25T13:26:59;99230.94;;;41.85;13.60
73103;BME280;61294;65.988;29.172;2022-08-25T13:29:32;99230.72;;;41.35;14.06
73103;BME280;61294;65.988;29.172;2022-08-25T13:32:04;99229.91;;;40.67;14.24
73103;BME280;61294;65.988;29.172;2022-08-25T13:34:34;99226.78;;;40.00;14.73
73103;BME280;61294;65.988;29.172;2022-08-25T13:37:06;99215.00;;;39.83;14.68
73103;BME280;61294;65.988;29.172;2022-08-25T13:40:07;99220.91;;;40.03;14.71
73103;BME280;61294;65.988;29.172;2022-08-25T13:42:34;99218.56;;;40.24;15.63
73103;BME280;61294;65.988;29.172;2022-08-25T13:45:06;99232.16;;;39.70;13.90
73103;BME280;61294;65.988;29.172;2022-08-25T13:47:37;99225.81;;;39.22;15.57
73103;BME280;61294;65.988;29.172;2022-08-25T13:50:34;99218.38;;;38.75;15.34
73103;BME280;61294;65.988;29.172;2022-08-25T13:53:20;99230.75;;;38.54;16.40
73103;BME280;61294;65.988;29.172;2022-08-25T13:55:59;99232.91;;;36.99;17.38
73103;BME280;61294;65.988;29.172;2022-08-25T13:58:33;99225.53;;;37.00;17.22
73103;BME280;61294;65.988;29.172;2022-08-25T14:01:28;99218.44;;;33.71;18.77
73103;BME280;61294;65.988;29.172;2022-08-25T14:03:57;99215.22;;;32.33;20.63
73103;BME280;61294;65.988;29.172;2022-08-25T14:06:41;99229.13;;;31.08;22.36
73103;BME280;61294;65.988;29.172;2022-08-25T14:09:16;99224.00;;;29.50;25.63
73103;BME280;61294;65.988;29.172;2022-08-25T14:11:56;99234.47;;;28.53;26.73
73103;BME280;61294;65.988;29.172;2022-08-25T14:16:56;99226.94;;;27.36;29.11
73103;BME280;61294;65.988;29.172;2022-08-25T14:19:23;99219.97;;;27.03;30.36
73103;BME280;61294;65.988;29.172;2022-08-25T14:21:50;99212.78;;;26.59;29.76
73103;BME280;61294;65.988;29.172;2022-08-25T14:24:23;99230.16;;;26.55;29.93
73103;BME280;61294;65.988;29.172;2022-08-25T14:26:49;99229.66;;;26.34;31.48
73103;BME280;61294;65.988;29.172;2022-08-25T14:29:15;99213.84;;;26.12;31.01
73103;BME280;61294;65.988;29.172;2022-08-25T14:31:43;99220.38;;;26.08;32.24
73103;BME280;61294;65.988;29.172;2022-08-25T14:34:18;99220.63;;;25.73;31.83
73103;BME280;61294;65.988;29.172;2022-08-25T14:36:46;99230.13;;;25.64;31.49
73103;BME280;61294;65.988;29.172;2022-08-25T14:39:14;99210.28;;;25.33;31.46